Latest Coastal Weather Observations for Holmes Reef

IDQ60701

Issued at 11:32 am EST Saturday 30 April 2016 (issued every 10 minutes, with the page automatically refreshed every 10 minutes)

About coastal observations | Map of coastal stations | Coastal observations for QLD | Marine services | Other Formats
Station Details ID: 200732 Name: HOLMES REEF Lat: -16.47 Lon: 147.87 Height: 1.9 m
Data from the previous 72 hours. | See also: Recent months at Holmes Reef
Date/Time
EST
Temp

°C
Wind Pressure Rain
since 9am
mm
Weather Cloud Vis
km
Sea
Height
m
Swell
Dir
 
Speed
knots
Gust
knots
hPa Trend Height
m
Period
s
Dir
30/11:30am 27.8 SE 17 20 1014.3 - - - - - - - - -
30/11:15am 27.7 SE 17 19 1014.2 - - - - - - - - -
30/11:00am 27.8 SE 18 20 1014.7 - - - - - - - - -
30/10:30am 27.9 SE 18 20 1015.0 - - - - - - - - -
30/10:15am 27.6 ESE 18 - 1014.9 - - - - - - - - -
30/10:00am 27.6 ESE 19 22 1015.4 - - - - - - - - -
30/09:30am 27.5 ESE 21 23 1015.3 - - - - - - - - -
30/09:15am 27.5 ESE 20 - 1015.0 - - - - - - - - -
30/09:00am 27.7 SE 21 23 1015.3 - - - - - - - - -
30/08:30am 27.6 SE 20 23 1015.1 - - - - - - - - -
30/08:15am 27.6 SE 21 - 1014.7 - - - - - - - - -
30/08:00am 27.6 SE 20 24 1014.8 - - - - - - - - -
30/07:30am 27.5 SE 21 24 1014.8 - - - - - - - - -
30/07:15am 27.6 SE 20 - 1014.4 - - - - - - - - -
30/07:00am 27.6 SE 21 24 1014.6 - - - - - - - - -
30/06:30am 27.3 SE 20 24 1014.2 - - - - - - - - -
30/06:15am 27.5 SE 21 - 1013.7 - - - - - - - - -
30/06:00am 27.5 SE 22 25 1013.8 - - - - - - - - -
30/05:30am 27.2 SE 21 25 1013.5 - - - - - - - - -
30/05:15am 27.4 SE 21 - 1013.0 - - - - - - - - -
30/05:00am 27.1 SE 20 23 1013.2 - - - - - - - - -
30/04:30am 27.2 SE 21 24 1013.1 - - - - - - - - -
30/04:15am 27.3 SE 21 - 1012.7 - - - - - - - - -
30/04:00am 27.4 SE 21 25 1012.9 - - - - - - - - -
30/03:30am 27.3 SE 21 24 1012.9 - - - - - - - - -
30/03:15am 27.2 SE 21 - 1012.7 - - - - - - - - -
30/03:00am 27.0 SE 20 23 1013.2 - - - - - - - - -
30/02:30am 27.5 SE 20 23 1013.5 - - - - - - - - -
30/02:29am 27.3 SE 20 23 1013.5 - - - - - - - - -
30/02:15am 27.4 SE 3 - 1013.2 - - - - - - - - -
30/02:00am 27.0 SE 2 3 1013.6 - - - - - - - - -
30/01:30am 27.0 SE 3 21 1013.8 - - - - - - - - -
30/01:15am 27.2 SE 20 - 1013.8 - - - - - - - - -
30/01:00am 27.1 SE 19 23 1014.1 - - - - - - - - -
30/12:30am 27.2 SE 20 23 1014.3 - - - - - - - - -
30/12:15am 27.0 SE 18 - 1014.4 - - - - - - - - -
30/12:00am 27.3 SE 18 21 1014.8 - - - - - - - - -
 
Date/Time
EST
Temp

°C
Wind Pressure Rain
since 9am
mm
Weather Cloud Vis
km
Sea
Height
m
Swell
Dir
 
Speed
knots
Gust
knots
hPa Trend Height
m
Period
s
Dir
29/11:30pm 27.3 SE 19 23 1015.0 - - - - - - - - -
29/11:15pm 27.2 SE 20 - 1014.7 - - - - - - - - -
29/11:00pm 27.4 SE 20 23 1015.1 - - - - - - - - -
29/10:30pm 27.6 SE 19 21 1015.2 - - - - - - - - -
29/10:15pm 27.5 SE 20 - 1014.9 - - - - - - - - -
29/10:00pm 27.5 SE 19 22 1015.1 - - - - - - - - -
29/09:30pm 27.6 SE 19 22 1015.4 - - - - - - - - -
29/09:15pm 27.6 SE 21 - 1014.9 - - - - - - - - -
29/09:00pm 27.6 SE 20 23 1015.1 - - - - - - - - -
29/08:30pm 27.5 SE 21 23 1014.8 - - - - - - - - -
29/08:15pm 27.7 SE 19 - 1014.4 - - - - - - - - -
29/08:00pm 27.5 SE 20 23 1014.4 - - - - - - - - -
29/07:30pm 27.6 SE 20 23 1014.1 - - - - - - - - -
29/07:15pm 27.6 SE 20 - 1013.6 - - - - - - - - -
29/07:00pm 27.6 SE 19 22 1013.7 - - - - - - - - -
29/06:30pm 27.6 SE 19 22 1013.3 - - - - - - - - -
29/06:15pm 27.5 SE 20 - 1012.9 - - - - - - - - -
29/06:00pm 27.7 SE 20 24 1013.0 - - - - - - - - -
29/05:30pm 27.6 SE 20 23 1012.8 - - - - - - - - -
29/05:15pm 27.7 SE 20 - 1012.3 - - - - - - - - -
29/05:00pm 27.7 SE 20 22 1012.6 - - - - - - - - -
29/04:30pm 27.5 SE 20 23 1012.5 - - - - - - - - -
29/04:15pm 27.7 SE 20 - 1012.0 - - - - - - - - -
29/04:00pm 27.5 SE 20 23 1012.1 - - - - - - - - -
29/03:30pm 27.3 SE 19 23 1012.2 - - - - - - - - -
29/03:15pm 26.3 ESE 21 - 1011.9 - - - - - - - - -
29/03:00pm 27.7 SE 20 22 1012.1 - - - - - - - - -
29/02:30pm 27.8 ESE 19 23 1012.1 - - - - - - - - -
29/02:15pm 27.8 SE 20 - 1011.9 - - - - - - - - -
29/02:00pm 27.6 SE 20 23 1012.3 - - - - - - - - -
29/01:30pm 27.7 SE 20 22 1012.7 - - - - - - - - -
29/01:15pm 27.6 SE 19 - 1012.6 - - - - - - - - -
29/01:00pm 27.7 ESE 19 23 1013.2 - - - - - - - - -
29/12:30pm 27.4 SE 17 19 1013.6 - - - - - - - - -
29/12:15pm 27.6 ESE 16 - 1013.4 - - - - - - - - -
29/12:00pm 27.7 ESE 19 23 1014.0 - - - - - - - - -
29/11:30am 27.8 ESE 19 22 1014.2 - - - - - - - - -
29/11:15am 27.7 ESE 19 - 1014.2 - - - - - - - - -
29/11:00am 27.4 ESE 19 24 1014.5 - - - - - - - - -
29/10:30am 27.7 ESE 20 24 1014.9 - - - - - - - - -
29/10:15am 27.8 SE 20 - 1014.7 - - - - - - - - -
29/10:00am 27.8 ESE 20 23 1015.1 - - - - - - - - -
29/09:30am 27.5 ESE 20 23 1015.1 - - - - - - - - -
29/09:15am 27.3 ESE 19 - 1014.9 - - - - - - - - -
29/09:00am 27.1 ESE 20 24 1015.0 - - - - - - - - -
29/08:30am 27.5 ESE 20 23 1014.8 - - - - - - - - -
29/08:15am 27.5 ESE 19 - 1014.4 - - - - - - - - -
29/08:00am 27.4 ESE 20 23 1014.7 - - - - - - - - -
29/07:30am 27.5 ESE 18 21 1014.5 - - - - - - - - -
29/07:15am 27.4 ESE 19 - 1014.0 - - - - - - - - -
29/07:00am 27.4 ESE 20 22 1014.3 - - - - - - - - -
29/06:30am 27.2 ESE 19 22 1014.0 - - - - - - - - -
29/06:15am 27.2 ESE 17 - 1013.6 - - - - - - - - -
29/06:00am 27.2 ESE 18 20 1013.7 - - - - - - - - -
29/05:30am 27.4 ESE 18 20 1013.2 - - - - - - - - -
29/05:15am 27.1 ESE 18 - 1012.7 - - - - - - - - -
29/05:00am 27.2 ESE 17 20 1012.8 - - - - - - - - -
29/04:30am 27.2 ESE 17 19 1012.5 - - - - - - - - -
29/04:15am 27.1 ESE 17 - 1012.0 - - - - - - - - -
29/04:00am 27.1 ESE 17 19 1012.3 - - - - - - - - -
29/03:30am 27.2 ESE 19 21 1012.3 - - - - - - - - -
29/03:15am 27.1 SE 19 - 1012.0 - - - - - - - - -
29/03:00am 27.1 SE 19 21 1012.3 - - - - - - - - -
29/02:30am 27.2 SE 20 23 1012.7 - - - - - - - - -
29/02:15am 27.3 ESE 20 - 1012.5 - - - - - - - - -
29/02:00am 27.2 ESE 20 23 1013.0 - - - - - - - - -
29/01:30am 27.1 SE 19 21 1013.2 - - - - - - - - -
29/01:15am 27.2 SE 19 - 1013.1 - - - - - - - - -
29/01:00am 27.2 SE 19 21 1013.6 - - - - - - - - -
29/12:30am 27.0 SE 19 23 1013.9 - - - - - - - - -
29/12:15am 27.0 SE 19 - 1013.9 - - - - - - - - -
29/12:00am 27.0 ESE 19 22 1014.3 - - - - - - - - -
 
Date/Time
EST
Temp

°C
Wind Pressure Rain
since 9am
mm
Weather Cloud Vis
km
Sea
Height
m
Swell
Dir
 
Speed
knots
Gust
knots
hPa Trend Height
m
Period
s
Dir
28/11:30pm 26.9 ESE 18 21 1014.6 - - - - - - - - -
28/11:15pm 26.8 ESE 18 - 1014.4 - - - - - - - - -
28/11:00pm 26.8 ESE 18 21 1014.7 - - - - - - - - -
28/10:30pm 26.6 SE 18 21 1014.8 - - - - - - - - -
28/10:15pm 26.6 SE 20 - 1014.5 - - - - - - - - -
28/10:00pm 26.2 SE 19 23 1014.8 - - - - - - - - -
28/09:30pm 25.3 SE 16 19 1014.6 - - - - - - - - -
28/09:15pm 24.8 SE 17 - 1014.4 - - - - - - - - -
28/09:00pm 24.3 ESE 19 22 1014.8 - - - - - - - - -
28/08:30pm 25.6 ESE 25 29 1014.5 - - - - - - - - -
28/08:15pm 25.2 ESE 24 - 1014.0 - - - - - - - - -
28/08:07pm 26.1 SE 18 30 1014.2 - - - - - - - - -
28/08:00pm 25.7 SE 17 21 1014.1 - - - - - - - - -
28/07:50pm 25.5 SE 20 23 1014.0 - - - - - - - - -
28/07:30pm 24.7 E 23 30 1013.8 - - - - - - - - -
28/07:15pm 25.9 SE 2 - 1013.3 - - - - - - - - -
28/07:00pm 25.0 ESE 18 22 1013.6 - - - - - - - - -
28/06:30pm 26.0 ESE 20 24 1013.1 - - - - - - - - -
28/06:15pm 26.1 E 18 - 1012.7 - - - - - - - - -
28/06:05pm 26.4 E 20 23 1013.0 - - - - - - - - -
28/06:00pm 27.4 SE 18 21 1012.8 - - - - - - - - -
28/05:30pm 25.9 E 10 13 1012.8 - - - - - - - - -
28/05:15pm 26.2 ESE 12 - 1012.5 - - - - - - - - -
28/05:00pm 26.1 ESE 18 21 1012.6 - - - - - - - - -
28/04:30pm 26.3 E 15 18 1012.3 - - - - - - - - -
28/04:15pm 26.4 E 15 - 1012.0 - - - - - - - - -
28/04:00pm 25.7 E 16 19 1012.2 - - - - - - - - -
28/03:30pm 26.0 E 21 23 1012.1 - - - - - - - - -
28/03:20pm 26.3 E 20 23 1012.0 - - - - - - - - -
28/03:15pm 27.0 ESE 18 - 1011.8 - - - - - - - - -
28/03:00pm 27.7 ESE 17 20 1011.8 - - - - - - - - -
28/02:30pm 27.7 ESE 16 19 1011.8 - - - - - - - - -
28/02:15pm 27.7 ESE 17 - 1011.5 - - - - - - - - -
28/02:00pm 27.5 ESE 17 19 1011.8 - - - - - - - - -
28/01:30pm 27.8 ESE 18 20 1012.0 - - - - - - - - -
28/01:15pm 27.5 ESE 19 - 1011.7 - - - - - - - - -
28/01:00pm 27.6 ESE 18 20 1012.2 - - - - - - - - -
28/12:30pm 27.5 ESE 16 20 1012.6 - - - - - - - - -
28/12:15pm 27.6 ESE 18 - 1012.5 - - - - - - - - -
28/12:00pm 27.5 ESE 18 21 1013.0 - - - - - - - - -
28/11:30am 27.6 SE 20 22 1013.4 - - - - - - - - -
28/11:15am 27.7 ESE 20 - 1013.2 - - - - - - - - -
28/11:00am 27.7 SE 19 21 1013.7 - - - - - - - - -
28/10:30am 27.5 ESE 21 24 1013.8 - - - - - - - - -
28/10:15am 27.5 SE 21 - 1013.6 - - - - - - - - -
28/10:00am 27.6 SE 21 23 1014.0 - - - - - - - - -
28/09:30am 27.4 SE 21 25 1013.9 - - - - - - - - -
28/09:15am 27.7 SE 22 - 1013.6 - - - - - - - - -
28/09:00am 27.4 ESE 22 25 1013.7 - - - - - - - - -
28/08:30am 27.2 SE 22 26 1013.4 - - - - - - - - -
28/08:15am 27.0 SE 22 - 1013.0 - - - - - - - - -
28/08:00am 26.4 SE 22 27 1013.2 - - - - - - - - -
28/07:30am 27.2 SE 21 25 1012.8 - - - - - - - - -
28/07:15am 27.0 SE 21 - 1012.4 - - - - - - - - -
28/07:00am 27.0 SE 20 26 1012.5 - - - - - - - - -
28/06:30am 27.2 SE 22 25 1012.2 - - - - - - - - -
28/06:15am 27.1 SE 22 - 1011.7 - - - - - - - - -
28/06:00am 27.1 SE 21 25 1012.0 - - - - - - - - -
28/05:30am 27.1 SE 22 25 1011.8 - - - - - - - - -
28/05:15am 27.1 SE 21 - 1011.3 - - - - - - - - -
28/05:00am 26.9 SE 21 24 1011.5 - - - - - - - - -
28/04:30am 27.2 SE 20 24 1011.5 - - - - - - - - -
28/04:15am 27.1 SE 21 - 1011.1 - - - - - - - - -
28/04:00am 27.1 SE 21 23 1011.5 - - - - - - - - -
28/03:30am 26.9 SE 20 24 1011.3 - - - - - - - - -
28/03:15am 27.0 ESE 20 - 1011.1 - - - - - - - - -
28/03:00am 27.1 ESE 20 23 1011.4 - - - - - - - - -
28/02:30am 27.1 ESE 21 24 1011.5 - - - - - - - - -
28/02:15am 27.2 ESE 22 - 1011.4 - - - - - - - - -
28/02:00am 27.2 ESE 22 25 1011.9 - - - - - - - - -
28/01:30am 27.1 ESE 21 24 1012.2 - - - - - - - - -
28/01:15am 27.2 ESE 21 - 1012.0 - - - - - - - - -
28/01:00am 27.1 ESE 20 24 1012.5 - - - - - - - - -
28/12:30am 27.0 ESE 21 23 1012.7 - - - - - - - - -
28/12:15am 27.3 ESE 21 - 1012.6 - - - - - - - - -
28/12:00am 27.4 ESE 21 24 1013.0 - - - - - - - - -
 
Date/Time
EST
Temp

°C
Wind Pressure Rain
since 9am
mm
Weather Cloud Vis
km
Sea
Height
m
Swell
Dir
 
Speed
knots
Gust
knots
hPa Trend Height
m
Period
s
Dir
27/11:30pm 27.0 SE 22 24 1013.0 - - - - - - - - -
27/11:15pm 27.2 SE 21 - 1012.8 - - - - - - - - -
27/11:00pm 27.1 ESE 21 24 1013.1 - - - - - - - - -
27/10:30pm 27.1 ESE 21 24 1013.1 - - - - - - - - -
27/10:15pm 27.4 ESE 21 - 1012.9 - - - - - - - - -
27/10:00pm 27.3 SE 20 23 1013.3 - - - - - - - - -
27/09:30pm 27.3 SE 21 23 1013.3 - - - - - - - - -
27/09:15pm 27.3 SE 21 - 1013.1 - - - - - - - - -
27/09:00pm 27.3 SE 21 25 1013.5 - - - - - - - - -
27/08:30pm 27.4 ESE 20 24 1013.4 - - - - - - - - -
27/08:15pm 27.4 ESE 19 - 1013.0 - - - - - - - - -
27/08:00pm 27.3 ESE 20 24 1013.2 - - - - - - - - -
27/07:30pm 27.4 SE 19 23 1012.9 - - - - - - - - -
27/07:15pm 27.6 SE 20 - 1012.5 - - - - - - - - -
27/07:00pm 27.3 SE 20 23 1012.6 - - - - - - - - -
27/06:30pm 27.6 SE 19 23 1012.3 - - - - - - - - -
27/06:15pm 27.5 SE 20 - 1011.8 - - - - - - - - -
27/06:00pm 27.4 SE 19 22 1012.0 - - - - - - - - -
27/05:30pm 27.3 SE 18 21 1011.8 - - - - - - - - -
27/05:15pm 27.4 SE 20 - 1011.2 - - - - - - - - -
27/05:00pm 27.3 SE 19 22 1011.3 - - - - - - - - -
27/04:30pm 27.6 SE 19 21 1011.1 - - - - - - - - -
27/04:15pm 27.4 SE 18 - 1010.7 - - - - - - - - -
27/04:00pm 27.6 SE 18 20 1010.9 - - - - - - - - -
27/03:30pm 27.6 SE 17 19 1010.7 - - - - - - - - -
27/03:15pm 27.6 SE 17 - 1010.5 - - - - - - - - -
27/03:00pm 27.4 SE 17 19 1010.8 - - - - - - - - -
27/02:30pm 27.5 ESE 17 19 1010.8 - - - - - - - - -
27/02:15pm 27.5 SE 17 - 1010.7 - - - - - - - - -
27/02:00pm 27.7 ESE 17 20 1011.1 - - - - - - - - -
27/01:30pm 27.7 ESE 18 20 1011.7 - - - - - - - - -
27/01:15pm 27.7 ESE 19 - 1011.5 - - - - - - - - -
27/01:00pm 27.6 ESE 18 21 1012.0 - - - - - - - - -
27/12:30pm 27.7 ESE 18 21 1012.4 - - - - - - - - -
27/12:15pm 27.8 SE 18 - 1012.1 - - - - - - - - -
27/12:00pm 27.9 SE 17 19 1012.7 - - - - - - - - -

Other Formats:

Comma delimited format used in spreadsheet applications
http://www.bom.gov.au/fwo/IDQ60701/IDQ60701.94289.axf

JavaScript Object Notation format (JSON) in row-major order
http://www.bom.gov.au/fwo/IDQ60701/IDQ60701.94289.json